createdAt,value
2023-04-22T00:02:23.744Z,100780.00
2023-04-22T00:04:51.162Z,100778.19
2023-04-22T00:07:18.634Z,100774.69
2023-04-22T00:09:46.028Z,100776.34
2023-04-22T00:12:13.277Z,100769.41
2023-04-22T00:14:40.598Z,100769.31
2023-04-22T00:17:07.744Z,100763.41
2023-04-22T00:19:35.156Z,100763.28
2023-04-22T00:22:04.274Z,100760.63
2023-04-22T00:24:31.303Z,100766.66
2023-04-22T00:26:58.384Z,100763.16
2023-04-22T00:29:26.029Z,100754.41
2023-04-22T00:31:53.899Z,100757.69
2023-04-22T00:34:21.656Z,100764.44
2023-04-22T00:36:49.221Z,100762.47
2023-04-22T00:39:16.301Z,100765.69
2023-04-22T00:41:43.464Z,100763.91
2023-04-22T00:44:11.441Z,100769.06
2023-04-22T00:46:39.604Z,100769.97
2023-04-22T00:49:08.191Z,100769.00
2023-04-22T00:51:35.490Z,100770.69
2023-04-22T00:54:03.361Z,100771.53
2023-04-22T00:56:33.022Z,100770.63
2023-04-22T00:59:00.291Z,100777.41
2023-04-22T01:01:28.143Z,100774.75
2023-04-22T01:03:56.538Z,100771.25
2023-04-22T01:06:24.363Z,100767.69
2023-04-22T01:08:51.399Z,100772.00
2023-04-22T01:11:18.860Z,100771.00
2023-04-22T01:13:46.389Z,100775.25
2023-04-22T01:16:13.758Z,100771.84
2023-04-22T01:18:41.709Z,100772.81
2023-04-22T01:21:08.726Z,100763.06
2023-04-22T01:23:35.909Z,100770.94
2023-04-22T01:26:02.911Z,100764.78
2023-04-22T01:28:30.613Z,100765.53
2023-04-22T01:30:57.710Z,100764.78
2023-04-22T01:33:24.832Z,100771.66
2023-04-22T01:35:54.386Z,100772.50
2023-04-22T01:38:23.341Z,100769.97
2023-04-22T01:40:51.297Z,100757.78
2023-04-22T01:43:18.338Z,100774.97
2023-04-22T01:45:45.504Z,100771.38
2023-04-22T01:48:12.734Z,100772.16
2023-04-22T01:50:39.857Z,100780.84
2023-04-22T01:53:07.857Z,100776.47
2023-04-22T01:55:37.181Z,100760.94
2023-04-22T01:58:05.414Z,100762.47
2023-04-22T02:00:32.551Z,100762.34
2023-04-22T02:02:59.761Z,100754.50
2023-04-22T02:05:27.531Z,100762.34
2023-04-22T02:07:55.226Z,100774.41
2023-04-22T02:10:22.674Z,100758.81
2023-04-22T02:12:49.795Z,100763.94
2023-04-22T02:15:17.012Z,100763.16
2023-04-22T02:17:44.139Z,100767.38
2023-04-22T02:20:11.866Z,100763.81
2023-04-22T02:22:41.401Z,100750.53
2023-04-22T02:25:09.254Z,100759.84
2023-04-22T02:27:36.676Z,100763.25
2023-04-22T02:30:04.373Z,100755.47
2023-04-22T02:32:31.592Z,100753.84
2023-04-22T02:34:58.676Z,100760.56
2023-04-22T02:37:25.639Z,100756.28
2023-04-22T02:39:53.472Z,100755.41
2023-04-22T02:42:20.617Z,100758.88
2023-04-22T02:44:47.672Z,100747.84
2023-04-22T02:47:14.736Z,100750.41
2023-04-22T02:49:42.171Z,100746.88
2023-04-22T02:52:09.470Z,100738.03
2023-04-22T02:54:36.633Z,100740.41
2023-04-22T02:57:03.599Z,100736.03
2023-04-22T02:59:31.845Z,100735.94
2023-04-22T03:01:58.960Z,100738.63
2023-04-22T03:04:26.337Z,100741.25
2023-04-22T03:06:53.994Z,100735.25
2023-04-22T03:09:21.087Z,100729.25
2023-04-22T03:11:48.146Z,100733.53
2023-04-22T03:14:15.154Z,100732.72
2023-04-22T03:16:42.251Z,100726.66
2023-04-22T03:19:09.266Z,100729.97
2023-04-22T03:21:36.396Z,100726.53
2023-04-22T03:24:03.557Z,100722.25
2023-04-22T03:26:30.924Z,100722.25
2023-04-22T03:28:58.030Z,100718.81
2023-04-22T03:31:25.084Z,100719.81
2023-04-22T03:33:52.639Z,100722.53
2023-04-22T03:36:19.743Z,100713.19
2023-04-22T03:38:46.859Z,100715.78
2023-04-22T03:41:13.879Z,100710.56
2023-04-22T03:43:40.986Z,100712.28
2023-04-22T03:46:08.291Z,100715.91
2023-04-22T03:48:35.799Z,100706.44
2023-04-22T03:51:02.908Z,100687.50
2023-04-22T03:53:29.959Z,100701.44
2023-04-22T03:55:56.973Z,100697.09
2023-04-22T03:58:24.123Z,100691.97
2023-04-22T04:00:51.249Z,100695.31
2023-04-22T04:03:18.632Z,100688.44
2023-04-22T04:05:45.953Z,100685.88
2023-04-22T04:08:13.334Z,100679.16
2023-04-22T04:10:41.201Z,100684.38
2023-04-22T04:13:08.389Z,100677.63
2023-04-22T04:15:36.959Z,100686.28
2023-04-22T04:18:04.493Z,100683.75
2023-04-22T04:20:31.727Z,100672.59
2023-04-22T04:22:58.785Z,100679.63
2023-04-22T04:25:25.957Z,100668.53
2023-04-22T04:27:54.000Z,100667.72
2023-04-22T04:30:22.543Z,100671.19
2023-04-22T04:32:49.714Z,100667.75
2023-04-22T04:35:18.383Z,100671.25
2023-04-22T04:37:46.485Z,100671.28
2023-04-22T04:40:13.542Z,100670.53
2023-04-22T04:42:40.751Z,100666.25
2023-04-22T04:45:09.340Z,100670.56
2023-04-22T04:47:36.495Z,100670.53
2023-04-22T04:50:04.376Z,100679.06
2023-04-22T04:52:31.862Z,100673.91
2023-04-22T04:54:58.966Z,100667.00
2023-04-22T04:57:26.108Z,100651.59
2023-04-22T04:59:53.869Z,100656.00
2023-04-22T05:02:21.194Z,100650.97
2023-04-22T05:04:48.985Z,100643.28
2023-04-22T05:07:16.949Z,100646.09
2023-04-22T05:09:44.294Z,100646.13
2023-04-22T05:12:11.395Z,100647.06
2023-04-22T05:14:38.446Z,100650.63
2023-04-22T05:17:05.629Z,100650.69
2023-04-22T05:19:32.862Z,100650.69
2023-04-22T05:22:00.184Z,100656.81
2023-04-22T05:24:27.229Z,100664.53
2023-04-22T05:26:54.356Z,100666.22
2023-04-22T05:29:22.230Z,100664.59
2023-04-22T05:31:49.654Z,100669.00
2023-04-22T05:34:17.230Z,100666.44
2023-04-22T05:36:44.257Z,100669.13
2023-04-22T05:39:11.410Z,100667.53
2023-04-22T05:41:38.687Z,100671.88
2023-04-22T05:44:05.722Z,100663.44
2023-04-22T05:46:32.855Z,100663.63
2023-04-22T05:48:59.936Z,100677.44
2023-04-22T05:51:27.050Z,100680.97
2023-04-22T05:53:54.380Z,100668.91
2023-04-22T05:56:22.359Z,100662.88
2023-04-22T05:58:56.204Z,100664.66
2023-04-22T06:01:26.434Z,100672.53
2023-04-22T06:03:55.847Z,100662.22
2023-04-22T06:06:27.412Z,100658.91
2023-04-22T06:08:54.568Z,100666.03
2023-04-22T06:11:26.412Z,100669.56
2023-04-22T06:13:54.876Z,100672.28
2023-04-22T06:16:23.613Z,100669.91
2023-04-22T06:18:50.706Z,100667.44
2023-04-22T06:21:17.811Z,100655.56
2023-04-22T06:23:56.471Z,100654.75
2023-04-22T06:26:23.865Z,100655.69
2023-04-22T06:28:51.000Z,100647.91
2023-04-22T06:31:19.035Z,100651.53
2023-04-22T06:33:48.102Z,100650.00
2023-04-22T06:36:17.912Z,100644.91
2023-04-22T06:38:47.877Z,100640.63
2023-04-22T06:41:15.374Z,100650.25
2023-04-22T06:43:42.900Z,100646.06
2023-04-22T06:46:10.468Z,100635.00
2023-04-22T06:48:37.577Z,100624.84
2023-04-22T06:51:04.721Z,100624.19
2023-04-22T06:53:31.790Z,100616.66
2023-04-22T06:55:58.853Z,100611.47
2023-04-22T06:58:26.085Z,100601.09
2023-04-22T07:00:54.030Z,100618.53
2023-04-22T07:03:21.263Z,100601.13
2023-04-22T07:05:49.435Z,100607.38
2023-04-22T07:08:17.347Z,100602.28
2023-04-22T07:10:44.444Z,100596.44
2023-04-22T07:13:11.527Z,100597.47
2023-04-22T07:15:38.596Z,100595.03
2023-04-22T07:18:05.751Z,100598.59
2023-04-22T07:20:33.083Z,100597.84
2023-04-22T07:23:00.148Z,100602.97
2023-04-22T07:25:27.208Z,100603.03
2023-04-22T07:27:54.339Z,100602.34
2023-04-22T07:30:22.416Z,100607.72
2023-04-22T07:32:49.860Z,100613.03
2023-04-22T07:35:18.131Z,100610.56
2023-04-22T07:37:45.288Z,100601.06
2023-04-22T07:40:13.943Z,100601.91
2023-04-22T07:42:41.412Z,100596.00
2023-04-22T07:45:08.701Z,100582.47
2023-04-22T07:47:35.893Z,100590.50
2023-04-22T07:50:03.768Z,100592.44
2023-04-22T07:52:30.965Z,100600.38
2023-04-22T07:54:58.068Z,100600.41
2023-04-22T07:57:25.388Z,100607.50
2023-04-22T07:59:57.067Z,100610.13
2023-04-22T08:02:24.417Z,100611.97
2023-04-22T08:04:52.970Z,100618.16
2023-04-22T08:09:50.222Z,100619.13
2023-04-22T08:12:17.413Z,100626.97
2023-04-22T08:14:44.448Z,100626.13
2023-04-22T08:17:11.440Z,100620.16
2023-04-22T08:19:38.855Z,100613.25
2023-04-22T08:22:07.227Z,100603.72
2023-04-22T08:24:34.277Z,100582.06
2023-04-22T08:27:02.591Z,100586.41
2023-04-22T08:29:29.696Z,100582.09
2023-04-22T08:31:56.763Z,100585.56
2023-04-22T08:34:26.044Z,100570.81
2023-04-22T08:36:54.201Z,100561.25
2023-04-22T08:39:21.351Z,100547.34
2023-04-22T08:41:50.381Z,100549.94
2023-04-22T08:44:17.863Z,100547.28
2023-04-22T08:46:47.249Z,100550.75
2023-04-22T08:49:20.173Z,100554.25
2023-04-22T08:51:49.677Z,100555.97
2023-04-22T08:54:17.375Z,100554.19
2023-04-22T08:56:45.678Z,100554.19
2023-04-22T08:59:13.662Z,100555.03
2023-04-22T09:01:42.334Z,100553.22
2023-04-22T09:04:11.358Z,100544.47
2023-04-22T09:06:39.265Z,100543.50
2023-04-22T09:09:08.563Z,100551.19
2023-04-22T09:11:36.307Z,100554.69
2023-04-22T09:14:06.722Z,100545.13
2023-04-22T09:16:39.870Z,100545.19
2023-04-22T09:19:11.681Z,100547.69
2023-04-22T09:21:40.896Z,100532.78
2023-04-22T09:24:09.176Z,100530.97
2023-04-22T09:26:41.014Z,100521.28
2023-04-22T09:29:13.161Z,100523.88
2023-04-22T09:31:40.810Z,100519.47
2023-04-22T09:34:08.719Z,100517.78
2023-04-22T09:36:38.843Z,100510.91
2023-04-22T09:39:08.187Z,100523.00
2023-04-22T09:41:38.808Z,100499.56
2023-04-22T09:44:18.151Z,100511.63
2023-04-22T09:46:45.974Z,100506.28
2023-04-22T09:49:17.100Z,100504.50
2023-04-22T09:51:44.183Z,100493.06
2023-04-22T09:54:11.633Z,100489.50
2023-04-22T09:56:53.767Z,100487.59
2023-04-22T09:59:30.471Z,100490.09
2023-04-22T10:02:04.185Z,100496.94
2023-04-22T10:04:31.605Z,100483.03
2023-04-22T10:06:59.650Z,100488.19
2023-04-22T10:09:26.659Z,100486.44
2023-04-22T10:11:56.702Z,100482.97
2023-04-22T10:14:24.688Z,100480.38
2023-04-22T10:16:59.083Z,100478.69
2023-04-22T10:19:27.374Z,100471.34
2023-04-22T10:21:59.355Z,100470.41
2023-04-22T10:24:28.440Z,100469.38
2023-04-22T10:26:59.899Z,100473.56
2023-04-22T10:29:35.442Z,100476.88
2023-04-22T10:32:17.411Z,100472.53
2023-04-22T10:34:47.138Z,100466.66
2023-04-22T10:37:18.438Z,100480.59
2023-04-22T10:40:07.840Z,100484.31
2023-04-22T10:42:35.254Z,100484.34
2023-04-22T10:45:04.473Z,100489.50
2023-04-22T10:47:38.712Z,100484.19
2023-04-22T10:50:19.600Z,100487.66
2023-04-22T10:52:50.042Z,100493.81
2023-04-22T10:55:18.456Z,100486.78
2023-04-22T10:57:47.348Z,100489.34
2023-04-22T11:00:22.370Z,100497.13
2023-04-22T11:02:54.359Z,100497.09
2023-04-22T11:05:26.323Z,100490.72
2023-04-22T11:07:55.833Z,100494.91
2023-04-22T11:13:09.975Z,100503.50
2023-04-22T11:15:39.098Z,100502.75
2023-04-22T11:18:17.041Z,100496.69
2023-04-22T11:20:44.554Z,100496.63
2023-04-22T11:23:11.711Z,100494.25
2023-04-22T11:25:38.755Z,100488.22
2023-04-22T11:28:06.200Z,100491.78
2023-04-22T11:30:33.247Z,100490.66
2023-04-22T11:33:00.722Z,100482.03
2023-04-22T11:35:33.347Z,100480.25
2023-04-22T11:38:08.600Z,100493.19
2023-04-22T11:40:42.787Z,100491.53
2023-04-22T11:43:12.315Z,100489.78
2023-04-22T11:45:39.806Z,100496.13
2023-04-22T11:48:09.318Z,100499.88
2023-04-22T11:50:38.287Z,100496.53
2023-04-22T11:53:18.186Z,100501.91
2023-04-22T11:55:47.359Z,100502.06
2023-04-22T11:58:17.334Z,100509.19
2023-04-22T12:00:47.283Z,100519.97
2023-04-22T12:03:19.457Z,100506.44
2023-04-22T12:05:53.969Z,100490.09
2023-04-22T12:08:23.742Z,100508.53
2023-04-22T12:10:54.548Z,100501.63
2023-04-22T12:13:24.224Z,100506.03
2023-04-22T12:16:03.185Z,100506.09
2023-04-22T12:18:38.190Z,100502.78
2023-04-22T12:21:08.912Z,100505.44
2023-04-22T12:23:53.287Z,100501.13
2023-04-22T12:26:25.384Z,100496.81
2023-04-22T12:28:55.956Z,100507.31
2023-04-22T12:31:24.190Z,100513.41
2023-04-22T12:33:51.286Z,100520.34
2023-04-22T12:36:20.941Z,100509.06
2023-04-22T12:38:48.348Z,100510.81
2023-04-22T12:41:18.400Z,100515.16
2023-04-22T12:43:45.554Z,100520.34
2023-04-22T12:46:12.789Z,100512.59
2023-04-22T12:48:39.933Z,100507.38
2023-04-22T12:51:07.274Z,100516.09
2023-04-22T12:53:34.690Z,100517.81
2023-04-22T12:56:01.867Z,100512.63
2023-04-22T12:58:28.968Z,100513.53
2023-04-22T13:00:56.013Z,100511.78
2023-04-22T13:03:24.122Z,100507.50
2023-04-22T13:05:53.562Z,100516.16
2023-04-22T13:08:21.137Z,100511.00
2023-04-22T13:10:48.638Z,100508.38
2023-04-22T13:13:19.096Z,100508.38
2023-04-22T13:15:50.445Z,100511.00
2023-04-22T13:18:17.750Z,100492.78
2023-04-22T13:20:45.556Z,100495.38
2023-04-22T13:23:13.391Z,100495.38
2023-04-22T13:25:40.583Z,100496.28
2023-04-22T13:28:07.697Z,100504.06
2023-04-22T13:30:34.885Z,100514.44
2023-04-22T13:33:02.033Z,100511.84
2023-04-22T13:35:29.150Z,100506.69
2023-04-22T13:37:56.260Z,100511.00
2023-04-22T13:40:24.309Z,100508.38
2023-04-22T13:42:53.168Z,100510.97
2023-04-22T13:45:20.605Z,100513.59
2023-04-22T13:47:47.873Z,100517.91
2023-04-22T13:50:15.418Z,100513.59
2023-04-22T13:52:42.581Z,100519.69
2023-04-22T13:55:09.829Z,100520.53
2023-04-22T13:57:37.054Z,100517.94
2023-04-22T14:00:05.403Z,100511.84
2023-04-22T14:02:32.736Z,100518.78
2023-04-22T14:04:59.891Z,100522.25
2023-04-22T14:07:26.974Z,100527.41
2023-04-22T14:09:54.132Z,100520.50
2023-04-22T14:12:21.263Z,100522.19
2023-04-22T14:14:48.404Z,100504.00
2023-04-22T14:17:15.565Z,100514.41
2023-04-22T14:19:44.928Z,100507.47
2023-04-22T14:22:11.962Z,100517.00
2023-04-22T14:24:39.020Z,100513.53
2023-04-22T14:27:06.202Z,100517.00
2023-04-22T14:29:33.360Z,100504.91
2023-04-22T14:32:01.070Z,100516.16
2023-04-22T14:34:28.472Z,100512.72
2023-04-22T14:36:55.629Z,100504.00
2023-04-22T14:39:23.893Z,100517.00
2023-04-22T14:41:51.540Z,100514.41
2023-04-22T14:44:22.948Z,100506.59
2023-04-22T14:46:50.047Z,100506.66
2023-04-22T14:49:17.617Z,100513.59
2023-04-22T14:51:44.661Z,100511.00
2023-04-22T14:54:12.134Z,100513.59
2023-04-22T14:56:39.322Z,100521.41
2023-04-22T14:59:06.525Z,100511.00
2023-04-22T15:01:33.655Z,100510.13
2023-04-22T15:04:00.787Z,100515.34
2023-04-22T15:06:28.347Z,100510.97
2023-04-22T15:08:55.906Z,100517.94
2023-04-22T15:11:24.195Z,100503.16
2023-04-22T15:13:51.353Z,100509.19
2023-04-22T15:16:18.505Z,100503.19
2023-04-22T15:18:45.904Z,100520.50
2023-04-22T15:21:13.113Z,100518.78
2023-04-22T15:23:40.255Z,100522.25
2023-04-22T15:26:07.383Z,100516.13
2023-04-22T15:28:34.437Z,100524.84
2023-04-22T15:31:01.740Z,100521.38
2023-04-22T15:33:28.995Z,100517.94
2023-04-22T15:35:56.122Z,100517.03
2023-04-22T15:38:24.647Z,100530.91
2023-04-22T15:40:51.688Z,100529.19
2023-04-22T15:43:19.852Z,100530.00
2023-04-22T15:45:47.494Z,100523.91
2023-04-22T15:48:14.925Z,100529.13
2023-04-22T15:50:42.014Z,100532.53
2023-04-22T15:53:09.070Z,100536.84
2023-04-22T15:55:36.096Z,100542.06
2023-04-22T15:58:03.166Z,100532.31
2023-04-22T16:00:30.264Z,100544.81
2023-04-22T16:02:58.134Z,100552.50
2023-04-22T16:05:25.503Z,100552.13
2023-04-22T16:07:54.282Z,100556.34
2023-04-22T16:10:21.451Z,100557.91
2023-04-22T16:12:49.538Z,100567.38
2023-04-22T16:15:17.831Z,100564.63
2023-04-22T16:17:45.128Z,100573.22
2023-04-22T16:20:12.227Z,100566.28
2023-04-22T16:22:40.519Z,100572.91
2023-04-22T16:25:08.544Z,100578.06
2023-04-22T16:27:35.789Z,100587.41
2023-04-22T16:30:03.392Z,100568.38
2023-04-22T16:32:31.069Z,100577.78
2023-04-22T16:35:11.175Z,100576.16
2023-04-22T16:37:38.195Z,100578.75
2023-04-22T16:40:06.672Z,100575.97
2023-04-22T16:42:33.842Z,100589.13
2023-04-22T16:45:01.555Z,100583.00
2023-04-22T16:47:28.836Z,100598.56
2023-04-22T16:49:56.035Z,100600.28
2023-04-22T16:52:23.872Z,100601.97
2023-04-22T16:54:51.572Z,100605.97
2023-04-22T16:57:19.646Z,100612.56
2023-04-22T16:59:47.952Z,100595.06
2023-04-22T17:02:15.247Z,100590.97
2023-04-22T17:04:42.896Z,100575.34
2023-04-22T17:07:10.263Z,100590.13
2023-04-22T17:09:37.352Z,100578.00
2023-04-22T17:12:04.610Z,100580.66
2023-04-22T17:14:31.860Z,100573.59
2023-04-22T17:16:58.860Z,100575.44
2023-04-22T17:19:26.071Z,100580.69
2023-04-22T17:21:54.315Z,100574.00
2023-04-22T17:24:22.376Z,100576.59
2023-04-22T17:26:49.815Z,100580.69
2023-04-22T17:29:21.436Z,100584.03
2023-04-22T17:31:49.179Z,100570.19
2023-04-22T17:34:16.796Z,100586.84
2023-04-22T17:36:43.907Z,100567.06
2023-04-22T17:39:11.748Z,100581.75
2023-04-22T17:41:38.836Z,100592.97
2023-04-22T17:44:08.739Z,100596.47
2023-04-22T17:46:35.874Z,100587.78
2023-04-22T17:49:03.008Z,100591.31
2023-04-22T17:51:31.469Z,100593.66
2023-04-22T17:53:58.664Z,100587.63
2023-04-22T17:56:26.029Z,100591.19
2023-04-22T17:58:53.967Z,100597.31
2023-04-22T18:01:21.076Z,100599.94
2023-04-22T18:03:48.284Z,100597.38
2023-04-22T18:06:16.018Z,100605.19
2023-04-22T18:08:43.116Z,100598.28
2023-04-22T18:11:11.131Z,100597.47
2023-04-22T18:13:38.494Z,100612.13
2023-04-22T18:16:05.791Z,100608.47
2023-04-22T18:18:32.855Z,100616.16
2023-04-22T18:21:01.299Z,100625.81
2023-04-22T18:23:28.886Z,100628.25
2023-04-22T18:25:56.257Z,100634.16
2023-04-22T18:28:26.888Z,100641.25
2023-04-22T18:30:54.044Z,100639.53
2023-04-22T18:33:21.078Z,100635.41
2023-04-22T18:35:48.124Z,100641.53
2023-04-22T18:38:15.100Z,100653.47
2023-04-22T18:40:42.309Z,100658.56
2023-04-22T18:43:09.382Z,100654.31
2023-04-22T18:45:36.683Z,100653.47
2023-04-22T18:48:03.952Z,100664.56
2023-04-22T18:50:31.017Z,100664.47
2023-04-22T18:52:58.130Z,100662.78
2023-04-22T18:55:25.337Z,100672.13
2023-04-22T18:57:52.999Z,100673.91
2023-04-22T19:00:20.111Z,100681.63
2023-04-22T19:02:48.071Z,100678.88
2023-04-22T19:05:15.490Z,100687.56
2023-04-22T19:07:44.918Z,100693.66
2023-04-22T19:10:12.358Z,100696.22
2023-04-22T19:12:39.479Z,100691.03
2023-04-22T19:15:07.336Z,100696.03
2023-04-22T19:17:34.964Z,100698.44
2023-04-22T19:20:02.538Z,100713.16
2023-04-22T19:22:29.585Z,100712.19
2023-04-22T19:24:58.596Z,100705.91
2023-04-22T19:27:26.723Z,100707.56
2023-04-22T19:29:54.076Z,100712.72
2023-04-22T19:32:21.157Z,100713.28
2023-04-22T19:34:49.853Z,100718.31
2023-04-22T19:37:18.520Z,100713.94
2023-04-22T19:39:46.099Z,100720.91
2023-04-22T19:42:13.294Z,100718.22
2023-04-22T19:44:42.917Z,100723.34
2023-04-22T19:47:10.085Z,100731.88
2023-04-22T19:49:38.716Z,100713.75
2023-04-22T19:52:09.472Z,100709.41
2023-04-22T19:54:37.115Z,100712.00
2023-04-22T19:57:06.496Z,100715.38
2023-04-22T19:59:34.088Z,100715.28
2023-04-22T20:02:01.614Z,100713.47
2023-04-22T20:04:29.055Z,100712.63
2023-04-22T20:06:57.735Z,100718.69
2023-04-22T20:09:26.498Z,100717.81
2023-04-22T20:11:53.978Z,100724.72
2023-04-22T20:14:22.206Z,100716.97
2023-04-22T20:16:49.881Z,100722.00
2023-04-22T20:19:17.976Z,100713.22
2023-04-22T20:21:48.193Z,100719.28
2023-04-22T20:24:19.630Z,100722.69
2023-04-22T20:26:48.007Z,100720.94
2023-04-22T20:29:21.448Z,100720.88
2023-04-22T20:31:48.822Z,100721.66
2023-04-22T20:34:16.359Z,100712.03
2023-04-22T20:36:43.615Z,100718.94
2023-04-22T20:39:14.064Z,100712.78
2023-04-22T20:41:41.577Z,100704.91
2023-04-22T20:44:08.667Z,100713.56
2023-04-22T20:46:35.751Z,100705.72
2023-04-22T20:49:02.949Z,100704.91
2023-04-22T20:51:30.011Z,100698.88
2023-04-22T20:53:57.432Z,100702.31
2023-04-22T20:56:25.305Z,100696.38
2023-04-22T20:58:53.186Z,100699.06
2023-04-22T21:01:20.430Z,100696.44
2023-04-22T21:03:52.982Z,100700.75
2023-04-22T21:06:21.125Z,100706.69
2023-04-22T21:08:54.031Z,100695.44
2023-04-22T21:11:21.568Z,100690.13
2023-04-22T21:13:50.279Z,100707.38
2023-04-22T21:16:19.126Z,100706.44
2023-04-22T21:18:47.458Z,100695.19
2023-04-22T21:21:17.476Z,100692.69
2023-04-22T21:23:44.742Z,100694.41
2023-04-22T21:26:13.882Z,100697.00
2023-04-22T21:28:41.361Z,100697.81
2023-04-22T21:31:08.545Z,100695.25
2023-04-22T21:33:35.702Z,100700.34
2023-04-22T21:36:02.853Z,100693.38
2023-04-22T21:38:29.887Z,100693.19
2023-04-22T21:40:56.979Z,100693.28
2023-04-22T21:43:24.065Z,100691.53
2023-04-22T21:45:51.095Z,100686.38
2023-04-22T21:48:18.102Z,100682.09
2023-04-22T21:50:45.446Z,100690.53
2023-04-22T21:53:12.701Z,100706.16
2023-04-22T21:55:40.299Z,100701.81
2023-04-22T21:58:07.361Z,100705.22
2023-04-22T22:00:34.373Z,100712.09
2023-04-22T22:03:01.794Z,100708.72
2023-04-22T22:05:29.338Z,100702.63
2023-04-22T22:07:56.645Z,100708.66
2023-04-22T22:10:24.110Z,100707.00
2023-04-22T22:12:51.347Z,100707.84
2023-04-22T22:15:18.731Z,100713.00
2023-04-22T22:17:46.153Z,100713.81
2023-04-22T22:20:16.611Z,100719.03
2023-04-22T22:22:44.546Z,100719.06
2023-04-22T22:25:13.549Z,100715.63
2023-04-22T22:27:41.699Z,100716.50
2023-04-22T22:30:09.081Z,100715.66
2023-04-22T22:32:36.328Z,100716.47
2023-04-22T22:35:04.161Z,100714.00
2023-04-22T22:37:31.350Z,100714.81
2023-04-22T22:39:58.428Z,100708.78
2023-04-22T22:42:25.527Z,100705.19
2023-04-22T22:44:53.736Z,100717.28
2023-04-22T22:47:20.819Z,100722.44
2023-04-22T22:49:47.933Z,100717.28
2023-04-22T22:52:14.981Z,100727.63
2023-04-22T22:54:42.614Z,100737.03
2023-04-22T22:57:10.106Z,100726.66
2023-04-22T22:59:37.251Z,100724.84
2023-04-22T23:02:04.644Z,100730.81
2023-04-22T23:04:32.101Z,100726.56
2023-04-22T23:06:59.355Z,100734.19
2023-04-22T23:09:26.396Z,100730.75
2023-04-22T23:11:55.293Z,100735.84
2023-04-22T23:14:23.697Z,100728.81
2023-04-22T23:16:50.953Z,100732.22
2023-04-22T23:19:18.505Z,100739.06
2023-04-22T23:21:46.571Z,100734.81
2023-04-22T23:24:15.190Z,100734.84
2023-04-22T23:26:42.829Z,100735.66
2023-04-22T23:29:10.212Z,100733.06
2023-04-22T23:31:40.347Z,100722.78
2023-04-22T23:34:08.085Z,100720.97
2023-04-22T23:36:38.782Z,100720.97
2023-04-22T23:39:06.796Z,100722.78
2023-04-22T23:41:33.845Z,100711.53
2023-04-22T23:44:00.886Z,100702.94
2023-04-22T23:46:28.010Z,100703.75
2023-04-22T23:48:55.182Z,100708.06
2023-04-22T23:51:22.803Z,100697.69
2023-04-22T23:53:49.877Z,100690.84
2023-04-22T23:56:21.047Z,100689.94
2023-04-22T23:58:49.385Z,100687.44
